Arcola, Indiana
Current Conditions -  °F | °C
As of 7:54 PM on Friday 24 Oct 2014 (Local Time) from KFWA Reporting Station
Broken Clouds Broken Clouds  
Wind Chill: 52°   Ceiling: 4300
Heat Index: 52°   Visibility: 10mi
Dew Point: 48°   Wind: 7mph
Humidity: 86%   Direction: 200°SSW
Pressure: 30.01"   Gusts: NA
Location:  41.1°N, 85.29°W
Report Text: KFWA 242354Z 20006KT 10SM SCT038 BKN043 11/09 A3001 RMK AO2 SLP165 T01110089 10178 20111 56001
Loading
Personal Weather Stations






























Interactive Weather Map
Tropical Storm Tracking
New forecast layout! Learn more

10-Day Weather Forecast

Advertisements
Track Severe Weather on mobile